Time;durP1;ratioP1;P1;durP2;ratioP2;P2;SDS_P1;SDS_P2;PMS_P1;PMS_P2;Temp;Humidity;BMP_temperature;BMP_pressure;BME280_temperature;BME280_humidity;BME280_pressure;Samples;Min_cycle;Max_cycle;Signal;HPM_P1;HPM_P2
2023/08/23 00:01:46;;;;;;;153.20;146.80;;;;;;;27.38;39.20;101944.03;5043271;28;20037;-71
2023/08/23 00:04:11;;;;;;;153.55;147.25;;;;;;;27.37;39.27;101939.63;5042639;28;20090;-71
2023/08/23 00:06:37;;;;;;;156.77;150.25;;;;;;;27.35;39.02;101935.56;5041408;28;20332;-71
2023/08/23 00:09:04;;;;;;;148.82;142.60;;;;;;;27.33;39.16;101930.34;5041224;28;20461;-71
2023/08/23 00:11:29;;;;;;;151.07;144.75;;;;;;;27.31;39.34;101938.16;5046477;28;20071;-71
2023/08/23 00:13:55;;;;;;;153.00;146.60;;;;;;;27.29;39.25;101936.84;5049685;28;20436;-71
2023/08/23 00:16:20;;;;;;;155.38;148.88;;;;;;;27.26;39.40;101934.75;5045981;28;20033;-74
2023/08/23 00:18:45;;;;;;;159.52;152.93;;;;;;;27.24;39.16;101934.25;5044027;28;20064;-70
2023/08/23 00:21:11;;;;;;;150.20;143.90;;;;;;;27.23;39.15;101935.41;5045717;28;20024;-73
2023/08/23 00:23:37;;;;;;;149.93;143.48;;;;;;;27.19;39.35;101930.53;5042208;28;20446;-71
2023/08/23 00:26:03;;;;;;;149.35;143.15;;;;;;;27.17;39.17;101930.00;5048485;28;20072;-73
2023/08/23 00:28:28;;;;;;;150.30;143.95;;;;;;;27.14;39.25;101922.34;5044846;28;20057;-73
2023/08/23 00:30:55;;;;;;;151.77;145.48;;;;;;;27.13;39.31;101922.66;5048768;28;20041;-72
2023/08/23 00:33:20;;;;;;;146.57;140.48;;;;;;;27.11;39.01;101919.38;5044148;28;20034;-74
2023/08/23 00:35:46;;;;;;;148.25;142.05;;;;;;;27.08;39.16;101918.09;5046869;28;20528;-70
2023/08/23 00:38:12;;;;;;;148.35;142.13;;;;;;;27.06;39.23;101905.69;5037753;28;20021;-70
2023/08/23 00:40:38;;;;;;;146.32;140.23;;;;;;;27.04;39.37;101907.97;5041648;28;20441;-70
2023/08/23 00:43:06;;;;;;;144.90;138.70;;;;;;;27.01;39.18;101903.06;5046000;28;20025;-70
2023/08/23 00:45:34;;;;;;;144.10;138.07;;;;;;;26.98;39.18;101899.00;5039141;28;20408;-69
2023/08/23 00:48:00;;;;;;;145.43;139.32;;;;;;;26.97;39.25;101902.94;5043161;28;20029;-72
2023/08/23 00:50:26;;;;;;;147.00;140.90;;;;;;;26.93;39.11;101901.94;5048921;28;20021;-71
2023/08/23 00:52:52;;;;;;;145.32;139.27;;;;;;;26.91;39.45;101910.59;5039217;28;20071;-72
2023/08/23 00:55:17;;;;;;;145.35;139.27;;;;;;;26.89;39.47;101912.06;5044084;28;20128;-71
2023/08/23 00:57:43;;;;;;;147.00;140.85;;;;;;;26.87;39.21;101903.25;5045540;28;20389;-71
2023/08/23 01:00:10;;;;;;;147.43;141.32;;;;;;;26.86;39.47;101907.16;5048445;28;20063;-72
2023/08/23 01:02:35;;;;;;;146.50;140.32;;;;;;;26.83;39.10;101903.06;5044420;28;20025;-70
2023/08/23 01:05:02;;;;;;;147.45;141.35;;;;;;;26.82;39.44;101903.41;5048439;28;20033;-71
2023/08/23 01:07:45;;;;;;;145.80;139.70;;;;;;;26.77;39.53;101905.19;5035648;28;20061;-72
2023/08/23 01:10:39;;;;;;;142.30;136.35;;;;;;;26.75;39.46;101913.00;5043848;28;20079;-73
2023/08/23 01:13:29;;;;;;;144.73;138.63;;;;;;;26.69;39.54;101906.00;5045183;28;20048;-70
2023/08/23 01:15:57;;;;;;;141.77;135.85;;;;;;;26.68;39.29;101912.66;5046779;28;20116;-71
2023/08/23 01:18:24;;;;;;;139.25;133.43;;;;;;;26.66;39.41;101911.38;5048243;28;20022;-68
2023/08/23 01:20:53;;;;;;;142.43;136.43;;;;;;;26.63;39.76;101904.50;5044945;28;20484;-71
2023/08/23 01:23:19;;;;;;;140.80;134.90;;;;;;;26.62;39.36;101910.41;5040124;28;20424;-69
2023/08/23 01:25:51;;;;;;;142.07;135.98;;;;;;;26.60;39.36;101901.59;5040758;28;20056;-69
2023/08/23 01:28:18;;;;;;;141.35;135.43;;;;;;;26.57;39.45;101905.81;5048106;28;20032;-70
2023/08/23 01:30:44;;;;;;;141.52;135.57;;;;;;;26.55;39.34;101906.13;5044837;28;20108;-70
2023/08/23 01:33:35;;;;;;;142.02;136.07;;;;;;;26.53;39.46;101894.59;5046402;28;20059;-70
2023/08/23 01:36:03;;;;;;;141.57;135.57;;;;;;;26.51;39.38;101901.53;5040445;28;20492;-71
2023/08/23 01:38:30;;;;;;;140.95;135.02;;;;;;;26.48;39.31;101893.88;5039911;28;20104;-70
2023/08/23 01:40:56;;;;;;;139.13;133.18;;;;;;;26.46;39.01;101888.66;5040578;28;20033;-71
2023/08/23 01:43:22;;;;;;;140.25;134.45;;;;;;;26.45;39.27;101889.78;5037564;28;20120;-70
2023/08/23 01:45:48;;;;;;;139.75;133.93;;;;;;;26.44;39.26;101898.44;5040189;28;20584;-71
2023/08/23 01:48:13;;;;;;;140.38;134.50;;;;;;;26.41;39.53;101896.28;5039417;28;20033;-71
2023/08/23 01:50:40;;;;;;;139.93;134.07;;;;;;;26.40;39.40;101891.91;5043139;28;20660;-71
2023/08/23 01:53:06;;;;;;;139.82;134.00;;;;;;;26.38;39.17;101896.94;5040998;28;20048;-71
2023/08/23 01:55:31;;;;;;;138.98;133.18;;;;;;;26.36;39.09;101894.50;5047589;28;20024;-71
2023/08/23 01:57:57;;;;;;;140.25;134.45;;;;;;;26.34;38.98;101899.56;5041740;28;20350;-71
2023/08/23 02:00:23;;;;;;;139.95;134.05;;;;;;;26.32;39.49;101901.81;5041307;28;20475;-70
2023/08/23 02:02:48;;;;;;;141.82;135.93;;;;;;;26.30;39.43;101902.13;5038773;28;20163;-71
2023/08/23 02:05:14;;;;;;;139.55;133.68;;;;;;;26.27;39.25;101894.47;5038799;28;20061;-70
2023/08/23 02:07:39;;;;;;;138.40;132.68;;;;;;;26.27;39.40;101899.22;5048584;28;20455;-70
2023/08/23 02:10:05;;;;;;;135.82;130.15;;;;;;;26.25;39.28;101896.75;5039301;28;20445;-70
2023/08/23 02:12:30;;;;;;;141.45;135.55;;;;;;;26.22;39.37;101902.13;5040013;28;20365;-73
2023/08/23 02:14:56;;;;;;;137.68;131.77;;;;;;;26.21;39.18;101897.72;5037423;28;20036;-72
2023/08/23 02:17:21;;;;;;;133.80;128.20;;;;;;;26.19;39.23;101892.50;5041351;28;20033;-73
2023/08/23 02:19:46;;;;;;;137.75;131.93;;;;;;;26.16;39.19;101893.16;5034263;28;20401;-71
2023/08/23 02:22:12;;;;;;;143.25;137.25;;;;;;;26.13;39.27;101891.00;5040951;28;20040;-71
2023/08/23 02:24:37;;;;;;;139.63;133.82;;;;;;;26.13;39.28;101893.78;5038168;28;20495;-70
2023/08/23 02:27:03;;;;;;;137.25;131.45;;;;;;;26.08;39.25;101896.69;5044403;28;20076;-70
2023/08/23 02:29:28;;;;;;;135.43;129.75;;;;;;;26.07;39.27;101890.34;5040328;28;20053;-70
2023/08/23 02:31:53;;;;;;;138.73;132.82;;;;;;;26.04;39.11;101893.75;5039312;28;20032;-70
2023/08/23 02:34:19;;;;;;;134.60;128.95;;;;;;;26.02;39.06;101890.47;5044964;28;20053;-71
2023/08/23 02:36:44;;;;;;;136.18;130.43;;;;;;;26.01;39.19;101885.28;5045481;28;20115;-70
2023/08/23 02:39:10;;;;;;;134.50;128.80;;;;;;;25.99;39.25;101888.34;5037651;28;20036;-71
2023/08/23 02:41:35;;;;;;;133.68;128.07;;;;;;;25.96;39.24;101883.47;5039764;28;20040;-70
2023/08/23 02:44:00;;;;;;;138.32;132.52;;;;;;;25.94;39.13;101879.38;5037565;28;20059;-70
2023/08/23 02:46:26;;;;;;;136.27;130.55;;;;;;;25.93;39.19;101886.03;5042168;28;20028;-71
2023/08/23 02:48:51;;;;;;;141.68;135.57;;;;;;;25.90;39.11;101879.19;5044903;28;20051;-71
2023/08/23 02:51:16;;;;;;;132.40;126.85;;;;;;;25.88;39.39;101885.06;5040781;28;20088;-70
2023/08/23 02:53:42;;;;;;;133.43;127.85;;;;;;;25.86;39.39;101879.03;5022518;28;20377;-72
2023/08/23 02:56:07;;;;;;;132.38;126.85;;;;;;;25.83;39.04;101876.03;5038029;28;20136;-70
2023/08/23 02:58:33;;;;;;;134.25;128.65;;;;;;;25.81;39.21;101884.66;5035401;28;20488;-70
2023/08/23 03:01:00;;;;;;;138.00;132.20;;;;;;;25.79;39.17;101881.41;5039578;28;20043;-70
2023/08/23 03:03:25;;;;;;;135.20;129.45;;;;;;;25.77;39.25;101880.91;5042987;28;20174;-70
2023/08/23 03:05:55;;;;;;;134.25;128.57;;;;;;;25.75;39.39;101874.84;5041678;28;20490;-70
2023/08/23 03:08:20;;;;;;;133.98;128.38;;;;;;;25.73;39.46;101873.53;5048529;28;20363;-71
2023/08/23 03:10:46;;;;;;;132.90;126.80;;;;;;;25.71;39.23;101864.78;5039245;28;20033;-70
2023/08/23 03:13:12;;;;;;;132.43;126.82;;;;;;;25.68;39.20;101875.34;5041117;28;20044;-71
2023/08/23 03:15:37;;;;;;;132.27;126.72;;;;;;;25.66;39.11;101885.91;5039612;28;20339;-71
2023/08/23 03:18:03;;;;;;;137.85;132.05;;;;;;;25.64;39.31;101881.81;5042507;28;20265;-71
2023/08/23 03:20:28;;;;;;;132.30;126.72;;;;;;;25.62;39.43;101882.13;5041083;28;20099;-71
2023/08/23 03:22:54;;;;;;;136.20;130.40;;;;;;;25.60;38.97;101875.28;5042091;28;20048;-71
2023/08/23 03:25:19;;;;;;;131.55;125.75;;;;;;;25.57;39.38;101878.69;5044137;28;20456;-70
2023/08/23 03:27:45;;;;;;;132.77;127.10;;;;;;;25.56;38.86;101877.06;5033404;28;20033;-73
2023/08/23 03:30:10;;;;;;;130.73;125.10;;;;;;;25.54;39.27;101876.56;5042967;28;20053;-71
2023/08/23 03:32:36;;;;;;;133.30;127.70;;;;;;;25.51;39.19;101875.25;5041520;28;20037;-70
2023/08/23 03:35:01;;;;;;;128.18;122.72;;;;;;;25.49;39.38;101883.03;5033965;28;20049;-70
2023/08/23 03:37:27;;;;;;;130.48;124.85;;;;;;;25.46;39.01;101880.91;5039777;28;20056;-70
2023/08/23 03:39:52;;;;;;;134.93;129.23;;;;;;;25.45;39.19;101873.72;5036463;28;20040;-70
2023/08/23 03:42:17;;;;;;;130.40;124.90;;;;;;;25.44;38.94;101872.09;5037513;28;20021;-70
2023/08/23 03:44:43;;;;;;;130.13;124.63;;;;;;;25.40;39.21;101869.16;5043697;28;20095;-71
2023/08/23 03:47:08;;;;;;;128.55;123.13;;;;;;;25.38;39.31;101871.44;5044882;28;20041;-70
2023/08/23 03:49:35;;;;;;;131.57;125.97;;;;;;;25.36;39.35;101868.16;5045714;28;20029;-71
2023/08/23 03:52:00;;;;;;;129.88;124.28;;;;;;;25.34;39.26;101866.84;5046668;28;20105;-72
2023/08/23 03:54:26;;;;;;;129.35;123.90;;;;;;;25.33;39.18;101877.09;5045597;28;20036;-72
2023/08/23 03:56:51;;;;;;;132.23;126.60;;;;;;;25.31;38.96;101876.59;5048896;28;20025;-70
2023/08/23 03:59:16;;;;;;;130.40;124.80;;;;;;;25.29;39.08;101878.84;5043057;28;20030;-69
2023/08/23 04:01:43;;;;;;;124.45;119.18;;;;;;;25.26;39.00;101874.75;5046563;28;20110;-71
2023/08/23 04:04:09;;;;;;;126.70;121.10;;;;;;;25.26;39.27;101887.78;5045421;28;20058;-71
2023/08/23 04:06:34;;;;;;;126.07;120.68;;;;;;;25.23;39.17;101880.91;5046751;28;20048;-70
2023/08/23 04:09:00;;;;;;;128.93;123.43;;;;;;;25.22;39.26;101884.81;5043376;28;20029;-72
2023/08/23 04:11:25;;;;;;;125.55;120.25;;;;;;;25.20;39.19;101880.72;5046102;28;20461;-70
2023/08/23 04:13:51;;;;;;;126.93;121.40;;;;;;;25.18;39.29;101883.00;5041405;28;20148;-70
2023/08/23 04:16:16;;;;;;;125.60;120.22;;;;;;;25.16;39.05;101888.00;5048778;28;20029;-70
2023/08/23 04:18:42;;;;;;;123.78;118.53;;;;;;;25.14;39.46;101884.72;5045585;28;20033;-71
2023/08/23 04:21:07;;;;;;;123.95;118.65;;;;;;;25.12;39.10;101873.97;5036946;28;20132;-71
2023/08/23 04:23:32;;;;;;;124.47;119.20;;;;;;;25.10;39.34;101870.72;5047064;28;20493;-70
2023/08/23 04:25:58;;;;;;;129.13;123.63;;;;;;;25.07;39.14;101863.03;5048241;28;20120;-70
2023/08/23 04:28:23;;;;;;;127.30;121.90;;;;;;;25.05;39.51;101874.41;5044779;28;20044;-71
2023/08/23 04:30:49;;;;;;;128.43;122.93;;;;;;;25.03;38.96;101876.69;5045632;28;20352;-70
2023/08/23 04:33:15;;;;;;;125.25;119.95;;;;;;;25.02;39.23;101879.75;5046218;28;20163;-69
2023/08/23 04:35:40;;;;;;;126.78;121.43;;;;;;;25.00;38.99;101877.31;5042223;28;20036;-71
2023/08/23 04:38:10;;;;;;;127.80;122.30;;;;;;;24.97;38.99;101877.94;5040186;28;20040;-70
2023/08/23 04:40:36;;;;;;;125.80;120.47;;;;;;;24.96;39.28;101873.53;5044398;28;20026;-70
2023/08/23 04:43:01;;;;;;;121.85;116.65;;;;;;;24.94;39.27;101873.00;5048548;28;20029;-70
2023/08/23 04:45:27;;;;;;;122.95;117.72;;;;;;;24.92;38.88;101877.22;5040682;28;20029;-70
2023/08/23 04:47:52;;;;;;;125.32;120.03;;;;;;;24.91;38.98;101872.84;5048024;28;20449;-72
2023/08/23 04:50:19;;;;;;;121.95;116.75;;;;;;;24.88;39.26;101871.50;5041122;28;20084;-71
2023/08/23 04:52:44;;;;;;;124.78;119.38;;;;;;;24.86;39.06;101875.72;5041166;28;20831;-71
2023/08/23 04:55:09;;;;;;;122.68;117.43;;;;;;;24.84;39.28;101874.06;5044453;28;20053;-71
2023/08/23 04:57:36;;;;;;;124.28;118.95;;;;;;;24.82;39.20;101869.97;5037661;28;20021;-71
2023/08/23 05:00:02;;;;;;;124.50;119.13;;;;;;;24.82;39.08;101872.75;5046428;28;20036;-71
2023/08/23 05:02:27;;;;;;;126.65;121.25;;;;;;;24.79;39.31;101868.66;5049418;28;20108;-71
2023/08/23 05:04:52;;;;;;;121.22;115.93;;;;;;;24.77;39.15;101867.34;5045999;28;20029;-71
2023/08/23 05:07:18;;;;;;;125.57;120.25;;;;;;;24.75;38.95;101873.19;5043149;28;20082;-70
2023/08/23 05:09:43;;;;;;;121.00;115.78;;;;;;;24.73;39.51;101866.34;5047920;28;20528;-71
2023/08/23 05:12:09;;;;;;;123.68;118.35;;;;;;;24.71;39.06;101869.41;5045132;28;20045;-70
2023/08/23 05:14:34;;;;;;;121.60;116.40;;;;;;;24.70;39.30;101884.38;5044032;28;20083;-71
2023/08/23 05:16:59;;;;;;;121.57;116.38;;;;;;;24.68;38.99;101872.81;5047515;28;20029;-71
2023/08/23 05:19:25;;;;;;;127.35;121.95;;;;;;;24.67;39.05;101870.34;5041346;28;20442;-71
2023/08/23 05:21:50;;;;;;;125.60;120.22;;;;;;;24.65;39.15;101870.66;5042264;28;20099;-70
2023/08/23 05:24:16;;;;;;;120.90;115.75;;;;;;;24.61;38.98;101870.44;5046258;28;20069;-71
2023/08/23 05:26:41;;;;;;;122.75;117.50;;;;;;;24.60;39.25;101868.84;5046780;28;20115;-70
2023/08/23 05:29:06;;;;;;;124.40;119.10;;;;;;;24.59;39.13;101874.66;5037021;28;20412;-71
2023/08/23 05:31:32;;;;;;;119.70;114.60;;;;;;;24.57;39.17;101874.19;5032472;28;20457;-70
2023/08/23 05:33:57;;;;;;;122.95;117.72;;;;;;;24.56;39.55;101878.03;5044399;28;20025;-71
2023/08/23 05:36:23;;;;;;;121.07;115.90;;;;;;;24.53;39.25;101881.44;5041039;28;20574;-70
2023/08/23 05:38:50;;;;;;;121.38;116.25;;;;;;;24.52;39.50;101883.38;5044395;28;20416;-70
2023/08/23 05:41:15;;;;;;;121.32;116.05;;;;;;;24.50;39.28;101893.09;5043721;28;20033;-71
2023/08/23 05:43:41;;;;;;;121.40;116.20;;;;;;;24.49;39.64;101889.50;5042122;28;20025;-71
2023/08/23 05:46:06;;;;;;;120.88;115.57;;;;;;;24.47;39.16;101891.78;5035977;28;20042;-71
2023/08/23 05:48:34;;;;;;;118.88;113.80;;;;;;;24.44;39.21;101895.09;5038086;28;20029;-72
2023/08/23 05:51:00;;;;;;;;;;;;;;;24.39;39.54;101889.69;5032726;28;20044;-70
2023/08/23 05:53:26;;;;;;;117.32;112.32;;;;;;;24.39;39.49;101898.81;5032901;28;20657;-70
2023/08/23 05:55:51;;;;;;;114.13;108.82;;;;;;;24.38;39.17;101893.59;5036789;28;20436;-70
2023/08/23 05:58:18;;;;;;;113.80;108.72;;;;;;;24.36;39.10;101887.56;5039619;28;20522;-71
2023/08/23 06:00:44;;;;;;;111.65;106.88;;;;;;;24.36;39.38;101893.88;5038037;28;20052;-70
2023/08/23 06:03:10;;;;;;;112.47;107.57;;;;;;;24.35;39.37;101891.44;5050567;28;20162;-71
2023/08/23 06:05:35;;;;;;;111.45;106.55;;;;;;;24.35;39.64;101894.22;5050326;28;20123;-71
2023/08/23 06:08:03;;;;;;;113.70;108.80;;;;;;;24.33;39.53;101893.69;5032462;28;20037;-71
2023/08/23 06:10:29;;;;;;;115.95;110.95;;;;;;;24.31;39.57;101899.53;5038400;28;20037;-71
2023/08/23 06:12:54;;;;;;;114.05;109.05;;;;;;;24.31;39.17;101894.00;5040081;28;20033;-71
2023/08/23 06:15:20;;;;;;;113.47;108.57;;;;;;;24.30;39.58;101900.66;5032494;28;20029;-71
2023/08/23 06:17:45;;;;;;;113.38;108.10;;;;;;;24.29;39.63;101899.03;5041007;28;20037;-71
2023/08/23 06:20:11;;;;;;;114.70;109.60;;;;;;;24.28;39.59;101889.09;5043964;28;20055;-71
2023/08/23 06:22:36;;;;;;;115.25;110.25;;;;;;;24.28;39.48;101891.03;5034055;28;20029;-71
2023/08/23 06:25:02;;;;;;;114.72;109.65;;;;;;;24.27;39.47;101892.19;5034448;28;20022;-71
2023/08/23 06:27:28;;;;;;;111.63;106.78;;;;;;;24.26;39.29;101894.09;5034478;28;20496;-71
2023/08/23 06:29:53;;;;;;;113.90;108.97;;;;;;;24.26;39.58;101890.53;5048498;28;20025;-71
2023/08/23 06:32:19;;;;;;;114.72;109.63;;;;;;;24.25;39.25;101900.75;5042735;28;20037;-71
2023/08/23 06:34:44;;;;;;;112.05;107.25;;;;;;;24.26;39.13;101899.63;5045640;28;20392;-71
2023/08/23 06:37:11;;;;;;;113.55;108.63;;;;;;;24.24;39.31;101890.00;5041381;28;20389;-73
2023/08/23 06:39:36;;;;;;;114.05;108.95;;;;;;;24.24;39.69;101904.66;5043006;28;20041;-71
2023/08/23 06:42:02;;;;;;;114.05;109.05;;;;;;;24.25;39.64;101902.72;5041652;28;20371;-73
2023/08/23 06:44:27;;;;;;;114.13;109.20;;;;;;;24.25;39.32;101900.75;5044111;28;20358;-71
2023/08/23 06:46:52;;;;;;;115.97;110.88;;;;;;;24.25;39.83;101909.03;5044306;28;20784;-71
2023/08/23 06:49:18;;;;;;;116.63;111.25;;;;;;;24.27;39.57;101908.75;5038755;28;20115;-71
2023/08/23 06:51:43;;;;;;;114.30;109.30;;;;;;;24.27;39.71;101912.31;5046292;28;20049;-71
2023/08/23 06:54:09;;;;;;;116.30;111.20;;;;;;;24.28;39.26;101907.59;5046963;28;20029;-70
2023/08/23 06:56:35;;;;;;;114.82;109.93;;;;;;;24.28;39.75;101910.38;5047545;28;20110;-70
2023/08/23 06:59:00;;;;;;;113.88;108.88;;;;;;;24.28;39.59;101913.94;5043146;28;20025;-70
2023/08/23 07:01:26;;;;;;;112.90;108.03;;;;;;;24.29;39.58;101917.53;5045032;28;20049;-71
2023/08/23 07:03:51;;;;;;;113.85;108.82;;;;;;;24.30;39.55;101921.94;5043699;28;20041;-70
2023/08/23 07:06:16;;;;;;;114.45;109.45;;;;;;;24.30;39.78;101924.69;5047918;28;20136;-70
2023/08/23 07:08:43;;;;;;;113.05;108.15;;;;;;;24.28;39.50;101922.22;5042526;28;20073;-70
2023/08/23 07:11:08;;;;;;;114.43;109.40;;;;;;;24.29;39.90;101928.56;5033381;28;20064;-71
2023/08/23 07:13:36;;;;;;;113.03;108.10;;;;;;;24.29;39.44;101923.03;5042195;28;20057;-71
2023/08/23 07:16:02;;;;;;;112.73;107.67;;;;;;;24.28;39.75;101922.22;5043415;28;20485;-71
2023/08/23 07:18:28;;;;;;;117.53;112.32;;;;;;;24.29;39.69;101931.31;5040183;28;20562;-71
2023/08/23 07:20:54;;;;;;;113.28;108.20;;;;;;;24.29;39.96;101928.56;5046359;28;20515;-71
2023/08/23 07:23:19;;;;;;;114.20;109.20;;;;;;;24.30;40.01;101921.94;5044705;28;20045;-73
2023/08/23 07:25:44;;;;;;;115.70;110.65;;;;;;;24.30;39.90;101932.97;5048283;28;20032;-72
2023/08/23 07:28:11;;;;;;;114.70;109.68;;;;;;;24.31;39.74;101932.66;5044892;28;20481;-73
2023/08/23 07:30:37;;;;;;;116.72;111.65;;;;;;;24.31;39.90;101931.84;5045933;28;20116;-72
2023/08/23 07:33:03;;;;;;;117.05;111.65;;;;;;;24.31;40.15;101938.19;5039426;28;20815;-73
2023/08/23 07:35:29;;;;;;;117.15;111.65;;;;;;;24.32;40.30;101936.25;5046743;28;20029;-71
2023/08/23 07:37:54;;;;;;;114.85;109.47;;;;;;;24.33;40.07;101941.47;5040116;28;20048;-71
2023/08/23 07:40:20;;;;;;;118.65;113.05;;;;;;;24.34;40.00;101929.31;5044944;28;20471;-72
2023/08/23 07:42:45;;;;;;;115.45;110.45;;;;;;;24.37;40.26;101938.91;5040057;28;20064;-71
2023/08/23 07:45:11;;;;;;;113.20;107.88;;;;;;;24.38;40.55;101938.59;5048763;28;20124;-71
2023/08/23 07:47:36;;;;;;;117.03;111.50;;;;;;;24.43;40.29;101929.38;5045868;28;20085;-70
2023/08/23 07:50:03;;;;;;;116.20;111.00;;;;;;;24.47;40.33;101929.59;5045292;28;20136;-70
2023/08/23 07:52:29;;;;;;;114.50;109.30;;;;;;;24.50;40.17;101929.81;5043082;28;20095;-71
2023/08/23 07:54:54;;;;;;;116.18;110.97;;;;;;;24.54;40.62;101936.34;5047501;28;20041;-72
2023/08/23 07:57:20;;;;;;;116.82;111.43;;;;;;;24.58;40.76;101933.81;5043921;28;20495;-72
2023/08/23 07:59:45;;;;;;;117.72;112.45;;;;;;;24.61;40.40;101939.50;5044583;28;20526;-71
2023/08/23 08:02:11;;;;;;;119.57;114.32;;;;;;;24.66;40.86;101932.25;5044704;28;20029;-71
2023/08/23 08:04:37;;;;;;;116.30;111.20;;;;;;;24.70;40.47;101928.56;5045102;28;20032;-72
2023/08/23 08:07:02;;;;;;;119.88;114.50;;;;;;;24.73;40.63;101932.66;5045772;28;20090;-71
2023/08/23 08:09:28;;;;;;;116.95;111.75;;;;;;;24.78;40.71;101941.66;5047270;28;20128;-71
2023/08/23 08:11:53;;;;;;;122.72;117.25;;;;;;;24.83;41.31;101937.97;5035673;28;20234;-71
2023/08/23 08:14:18;;;;;;;119.40;114.07;;;;;;;24.88;41.02;101937.03;5038284;28;20094;-71
2023/08/23 08:16:44;;;;;;;120.63;115.03;;;;;;;24.93;40.87;101934.16;5046721;28;20048;-71
2023/08/23 08:19:09;;;;;;;120.18;114.95;;;;;;;24.98;41.25;101934.03;5045508;28;20396;-72
2023/08/23 08:21:36;;;;;;;121.80;116.53;;;;;;;25.04;41.27;101941.88;5046666;28;20516;-71
2023/08/23 08:24:02;;;;;;;123.13;117.72;;;;;;;25.09;41.52;101932.66;5042958;28;20461;-71
2023/08/23 08:26:28;;;;;;;122.88;117.38;;;;;;;25.16;41.25;101926.69;5047691;28;20090;-71
2023/08/23 08:28:54;;;;;;;122.43;116.97;;;;;;;25.20;41.15;101923.03;5047589;28;20029;-71
2023/08/23 08:31:20;;;;;;;122.88;117.38;;;;;;;25.27;41.69;101919.81;5046340;28;20127;-71
2023/08/23 08:33:46;;;;;;;123.22;117.80;;;;;;;25.33;41.53;101926.88;5046141;28;20112;-70
2023/08/23 08:36:12;;;;;;;123.65;118.22;;;;;;;25.40;41.56;101921.72;5043450;28;20040;-70
2023/08/23 08:38:37;;;;;;;125.25;119.85;;;;;;;25.46;41.82;101920.44;5046020;28;20036;-70
2023/08/23 08:41:04;;;;;;;126.72;121.22;;;;;;;25.55;41.54;101925.22;5048626;28;20040;-70
2023/08/23 08:43:31;;;;;;;125.18;119.82;;;;;;;25.61;41.78;101918.44;5045383;28;20458;-70
2023/08/23 08:45:57;;;;;;;125.22;119.53;;;;;;;25.67;41.38;101929.03;5044820;28;20037;-70
2023/08/23 08:48:22;;;;;;;127.07;121.65;;;;;;;25.74;41.51;101923.06;5047935;28;20049;-69
2023/08/23 08:50:48;;;;;;;131.27;124.82;;;;;;;25.82;41.65;101918.69;5046901;28;20041;-70
2023/08/23 08:53:15;;;;;;;128.80;123.25;;;;;;;25.88;41.87;101934.88;5046352;28;20595;-70
2023/08/23 08:55:42;;;;;;;129.10;123.43;;;;;;;25.97;41.53;101925.81;5046993;28;20040;-71
2023/08/23 08:58:08;;;;;;;130.52;124.80;;;;;;;26.04;41.81;101926.16;5043426;28;20033;-72
2023/08/23 09:00:35;;;;;;;129.63;124.03;;;;;;;26.12;41.72;101928.97;5042241;28;20090;-70
2023/08/23 09:03:00;;;;;;;131.98;126.28;;;;;;;26.19;41.63;101925.75;5047420;28;20384;-71
2023/08/23 09:05:26;;;;;;;137.10;131.10;;;;;;;26.26;41.65;101928.06;5045774;28;20036;-71
2023/08/23 09:07:53;;;;;;;133.18;127.40;;;;;;;26.34;41.47;101930.03;5043009;28;20029;-71
2023/08/23 09:10:19;;;;;;;141.23;135.13;;;;;;;26.43;41.49;101930.03;5043229;28;20037;-71
2023/08/23 09:12:44;;;;;;;136.50;130.32;;;;;;;26.51;41.59;101920.91;5046322;28;20140;-70
2023/08/23 09:15:10;;;;;;;135.38;129.52;;;;;;;26.59;41.70;101934.03;5045741;28;20219;-71
2023/08/23 09:17:36;;;;;;;135.70;129.80;;;;;;;26.66;41.63;101939.09;5042390;28;20037;-70
2023/08/23 09:20:06;;;;;;;137.10;130.60;;;;;;;26.73;41.89;101950.50;5046628;28;20129;-71
2023/08/23 09:22:33;;;;;;;137.05;130.85;;;;;;;26.80;41.79;101958.34;5046744;28;20041;-71
2023/08/23 09:24:59;;;;;;;139.98;133.88;;;;;;;26.86;41.56;101941.25;5043882;28;20558;-71
2023/08/23 09:27:26;;;;;;;142.15;135.70;;;;;;;26.92;41.94;101942.72;5047155;28;20071;-70
2023/08/23 09:29:54;;;;;;;144.18;137.90;;;;;;;26.98;41.74;101932.28;5040702;28;20124;-71
2023/08/23 09:32:19;;;;;;;141.20;134.93;;;;;;;27.04;41.91;101931.00;5039754;28;20040;-71
2023/08/23 09:34:45;;;;;;;148.82;142.13;;;;;;;27.11;41.82;101928.50;5044584;28;20029;-71
2023/08/23 09:37:10;;;;;;;144.55;138.15;;;;;;;27.16;42.07;101930.31;5042982;28;20037;-70
2023/08/23 09:39:36;;;;;;;142.07;135.73;;;;;;;27.21;42.02;101934.91;5046552;28;20036;-70
2023/08/23 09:42:13;;;;;;;144.57;138.27;;;;;;;27.28;41.76;101943.56;5046692;28;20047;-72
2023/08/23 09:44:43;;;;;;;145.80;139.38;;;;;;;27.34;42.04;101939.47;5046220;28;20070;-71
2023/08/23 09:47:17;;;;;;;148.80;142.02;;;;;;;27.39;42.02;101939.28;5044625;28;20099;-69
2023/08/23 09:49:44;;;;;;;142.52;136.23;;;;;;;27.44;42.06;101939.13;5048876;28;20040;-70
2023/08/23 09:52:11;;;;;;;147.80;141.25;;;;;;;27.50;42.04;101939.78;5048516;28;20040;-72
2023/08/23 09:54:52;;;;;;;148.48;141.55;;;;;;;27.54;42.19;101938.81;5044595;28;20102;-70
2023/08/23 09:57:18;;;;;;;147.48;141.10;;;;;;;27.61;42.21;101938.28;5046694;28;20283;-71
2023/08/23 09:59:44;;;;;;;148.70;142.40;;;;;;;27.67;42.18;101938.91;5045636;28;20041;-67
2023/08/23 10:02:10;;;;;;;154.25;147.70;;;;;;;27.71;42.15;101934.34;5046802;28;20045;-70
2023/08/23 10:04:40;;;;;;;150.57;144.13;;;;;;;27.78;42.09;101932.69;5045051;28;20043;-70
2023/08/23 10:07:07;;;;;;;148.02;141.77;;;;;;;27.82;42.43;101933.69;5049335;28;20542;-71
2023/08/23 10:09:34;;;;;;;151.45;144.93;;;;;;;27.88;42.27;101927.97;5044563;28;20042;-69
2023/08/23 10:12:01;;;;;;;156.30;149.50;;;;;;;27.92;42.14;101932.53;5038304;28;20051;-70
2023/08/23 10:14:28;;;;;;;155.73;148.75;;;;;;;27.98;41.72;101936.75;5043753;28;20128;-70
2023/08/23 10:16:54;;;;;;;151.48;144.57;;;;;;;28.03;41.65;101932.97;5044079;28;20041;-69
2023/08/23 10:19:20;;;;;;;152.48;145.80;;;;;;;28.08;41.95;101931.97;5046499;28;20060;-69
2023/08/23 10:21:45;;;;;;;155.98;149.38;;;;;;;28.12;42.09;101932.91;5044593;28;20532;-70
2023/08/23 10:24:12;;;;;;;160.23;153.63;;;;;;;28.18;41.88;101937.16;5049095;28;20033;-70
2023/08/23 10:26:45;;;;;;;161.70;154.70;;;;;;;28.22;41.75;101941.72;5047340;28;20044;-70
2023/08/23 10:29:11;;;;;;;153.27;146.68;;;;;;;28.28;41.71;101936.78;5037031;28;20379;-70
2023/08/23 10:31:36;;;;;;;151.95;145.57;;;;;;;28.32;41.76;101931.34;5047306;28;20048;-70
2023/08/23 10:34:02;;;;;;;153.27;146.68;;;;;;;28.36;41.94;101933.13;5044913;28;20025;-69
2023/08/23 10:36:29;;;;;;;154.82;148.10;;;;;;;28.41;42.20;101926.56;5044589;28;20627;-68
2023/08/23 10:38:56;;;;;;;162.57;155.88;;;;;;;28.46;42.18;101929.19;5040408;28;20121;-69
2023/08/23 10:41:26;;;;;;;160.30;153.50;;;;;;;28.51;42.29;101925.41;5046966;28;20033;-69
2023/08/23 10:43:53;;;;;;;160.23;153.43;;;;;;;28.54;41.85;101924.72;5045383;28;20029;-71
2023/08/23 10:46:21;;;;;;;163.55;156.50;;;;;;;28.60;42.04;101915.03;5043276;28;20105;-73
2023/08/23 10:48:47;;;;;;;160.35;153.45;;;;;;;28.64;42.09;101913.22;5044842;28;20037;-69
2023/08/23 10:51:14;;;;;;;165.93;158.98;;;;;;;28.68;42.25;101920.53;5042757;28;20113;-68